createdAt,value
2018-02-08T00:00:31.418Z,1017.65
2018-02-08T00:01:31.382Z,1017.68
2018-02-08T00:02:31.706Z,1017.66
2018-02-08T00:03:31.315Z,1017.65
2018-02-08T00:04:31.276Z,1017.66
2018-02-08T00:05:31.238Z,1017.63
2018-02-08T00:06:31.202Z,1017.66
2018-02-08T00:07:31.168Z,1017.63
2018-02-08T00:08:31.136Z,1017.64
2018-02-08T00:09:31.099Z,1017.65
2018-02-08T00:10:31.064Z,1017.67
2018-02-08T00:11:31.018Z,1017.67
2018-02-08T00:12:30.995Z,1017.66
2018-02-08T00:13:30.953Z,1017.60
2018-02-08T00:14:30.920Z,1017.63
2018-02-08T00:15:30.901Z,1017.63
2018-02-08T00:16:30.846Z,1017.61
2018-02-08T00:17:30.801Z,1017.65
2018-02-08T00:18:30.772Z,1017.61
2018-02-08T00:19:30.736Z,1017.64
2018-02-08T00:20:30.701Z,1017.66
2018-02-08T00:21:30.662Z,1017.68
2018-02-08T00:22:30.629Z,1017.69
2018-02-08T00:23:30.584Z,1017.69
2018-02-08T00:24:30.555Z,1017.70
2018-02-08T00:25:30.514Z,1017.66
2018-02-08T00:26:30.778Z,1017.68
2018-02-08T00:27:30.440Z,1017.64
2018-02-08T00:28:30.410Z,1017.69
2018-02-08T00:29:30.377Z,1017.69
2018-02-08T00:30:30.341Z,1017.65
2018-02-08T00:31:30.303Z,1017.68
2018-02-08T00:32:30.611Z,1017.67
2018-02-08T00:33:30.222Z,1017.64
2018-02-08T00:34:30.189Z,1017.66
2018-02-08T00:35:30.163Z,1017.61
2018-02-08T00:36:30.118Z,1017.63
2018-02-08T00:37:30.079Z,1017.65
2018-02-08T00:38:30.045Z,1017.62
2018-02-08T00:39:30.007Z,1017.63
2018-02-08T00:40:29.974Z,1017.65
2018-02-08T00:41:29.941Z,1017.63
2018-02-08T00:42:29.908Z,1017.59
2018-02-08T00:43:29.868Z,1017.61
2018-02-08T00:44:29.832Z,1017.64
2018-02-08T00:45:29.792Z,1017.59
2018-02-08T00:46:29.756Z,1017.61
2018-02-08T00:47:29.716Z,1017.55
2018-02-08T00:48:29.680Z,1017.62
2018-02-08T00:49:29.640Z,1017.59
2018-02-08T00:50:29.610Z,1017.65
2018-02-08T00:51:29.573Z,1017.67
2018-02-08T00:52:29.530Z,1017.63
2018-02-08T00:53:29.494Z,1017.63
2018-02-08T00:54:29.470Z,1017.65
2018-02-08T00:55:29.422Z,1017.64
2018-02-08T00:56:29.689Z,1017.68
2018-02-08T00:57:29.349Z,1017.65
2018-02-08T00:58:29.328Z,1017.66
2018-02-08T00:59:29.276Z,1017.67
2018-02-08T01:00:29.245Z,1017.68
2018-02-08T01:01:29.203Z,1017.63
2018-02-08T01:02:29.467Z,1017.62
2018-02-08T01:03:29.133Z,1017.60
2018-02-08T01:04:29.092Z,1017.59
2018-02-08T01:05:29.063Z,1017.59
2018-02-08T01:06:29.019Z,1017.55
2018-02-08T01:07:28.981Z,1017.62
2018-02-08T01:08:29.300Z,1017.56
2018-02-08T01:09:28.919Z,1017.58
2018-02-08T01:10:28.874Z,1017.60
2018-02-08T01:11:28.861Z,1017.57
2018-02-08T01:12:28.795Z,1017.58
2018-02-08T01:13:28.758Z,1017.55
2018-02-08T01:14:29.032Z,1017.56
2018-02-08T01:15:28.718Z,1017.56
2018-02-08T01:16:28.648Z,1017.54
2018-02-08T01:17:28.611Z,1017.52
2018-02-08T01:18:28.593Z,1017.52
2018-02-08T01:19:28.543Z,1017.55
2018-02-08T01:20:28.515Z,1017.52
2018-02-08T01:21:28.480Z,1017.49
2018-02-08T01:22:28.428Z,1017.48
2018-02-08T01:23:28.398Z,1017.46
2018-02-08T01:24:28.365Z,1017.46
2018-02-08T01:25:28.327Z,1017.44
2018-02-08T01:26:28.638Z,1017.43
2018-02-08T01:27:28.253Z,1017.40
2018-02-08T01:28:28.213Z,1017.42
2018-02-08T01:29:28.177Z,1017.43
2018-02-08T01:30:28.143Z,1017.45
2018-02-08T01:31:28.106Z,1017.43
2018-02-08T01:32:28.070Z,1017.44
2018-02-08T01:33:28.028Z,1017.42
2018-02-08T01:34:27.991Z,1017.38
2018-02-08T01:35:27.950Z,1017.35
2018-02-08T01:36:27.917Z,1017.39
2018-02-08T01:37:28.179Z,1017.39
2018-02-08T01:38:27.849Z,1017.41
2018-02-08T01:39:27.804Z,1017.41
2018-02-08T01:40:27.771Z,1017.45
2018-02-08T01:41:27.740Z,1017.46
2018-02-08T01:42:27.704Z,1017.42
2018-02-08T01:43:27.661Z,1017.44
2018-02-08T01:44:27.616Z,1017.40
2018-02-08T01:45:27.596Z,1017.38
2018-02-08T01:46:27.549Z,1017.41
2018-02-08T01:47:27.510Z,1017.41
2018-02-08T01:48:27.479Z,1017.38
2018-02-08T01:49:27.434Z,1017.39
2018-02-08T01:50:27.401Z,1017.37
2018-02-08T01:51:27.374Z,1017.32
2018-02-08T01:52:27.328Z,1017.29
2018-02-08T01:53:27.298Z,1017.30
2018-02-08T01:54:27.248Z,1017.31
2018-02-08T01:55:27.575Z,1017.32
2018-02-08T01:56:27.183Z,1017.36
2018-02-08T01:57:27.146Z,1017.37
2018-02-08T01:58:27.114Z,1017.40
2018-02-08T01:59:27.071Z,1017.36
2018-02-08T02:00:27.030Z,1017.39
2018-02-08T02:01:27.297Z,1017.36
2018-02-08T02:02:26.978Z,1017.41
2018-02-08T02:03:26.935Z,1017.38
2018-02-08T02:04:26.885Z,1017.34
2018-02-08T02:05:26.842Z,1017.34
2018-02-08T02:06:26.812Z,1017.40
2018-02-08T02:07:26.775Z,1017.38
2018-02-08T02:08:26.738Z,1017.41
2018-02-08T02:09:26.701Z,1017.40
2018-02-08T02:10:26.661Z,1017.41
2018-02-08T02:11:26.626Z,1017.37
2018-02-08T02:12:26.892Z,1017.35
2018-02-08T02:13:26.551Z,1017.36
2018-02-08T02:14:26.518Z,1017.34
2018-02-08T02:15:26.478Z,1017.33
2018-02-08T02:16:26.439Z,1017.30
2018-02-08T02:17:26.404Z,1017.31
2018-02-08T02:18:26.724Z,1017.32
2018-02-08T02:19:26.331Z,1017.31
2018-02-08T02:20:26.297Z,1017.35
2018-02-08T02:21:26.260Z,1017.37
2018-02-08T02:22:26.219Z,1017.39
2018-02-08T02:23:26.209Z,1017.41
2018-02-08T02:24:26.148Z,1017.39
2018-02-08T02:25:26.113Z,1017.39
2018-02-08T02:26:26.084Z,1017.41
2018-02-08T02:27:26.040Z,1017.37
2018-02-08T02:28:25.998Z,1017.40
2018-02-08T02:29:25.962Z,1017.38
2018-02-08T02:30:25.929Z,1017.42
2018-02-08T02:31:25.892Z,1017.39
2018-02-08T02:32:25.844Z,1017.41
2018-02-08T02:33:25.812Z,1017.39
2018-02-08T02:34:25.779Z,1017.39
2018-02-08T02:35:25.744Z,1017.41
2018-02-08T02:36:25.703Z,1017.40
2018-02-08T02:37:25.671Z,1017.37
2018-02-08T02:38:25.855Z,1017.38
2018-02-08T02:39:25.588Z,1017.41
2018-02-08T02:40:25.555Z,1017.40
2018-02-08T02:41:25.517Z,1017.45
2018-02-08T02:42:25.483Z,1017.43
2018-02-08T02:43:25.444Z,1017.40
2018-02-08T02:44:25.407Z,1017.38
2018-02-08T02:45:25.368Z,1017.35
2018-02-08T02:46:25.337Z,1017.35
2018-02-08T02:47:25.296Z,1017.34
2018-02-08T02:48:25.510Z,1017.42
2018-02-08T02:49:25.222Z,1017.41
2018-02-08T02:50:25.189Z,1017.41
2018-02-08T02:51:25.148Z,1017.45
2018-02-08T02:52:25.110Z,1017.46
2018-02-08T02:53:25.068Z,1017.46
2018-02-08T02:54:25.384Z,1017.48
2018-02-08T02:55:24.997Z,1017.49
2018-02-08T02:56:24.960Z,1017.45
2018-02-08T02:57:24.931Z,1017.44
2018-02-08T02:58:24.886Z,1017.45
2018-02-08T02:59:24.851Z,1017.41
2018-02-08T03:00:24.814Z,1017.43
2018-02-08T03:01:24.781Z,1017.47
2018-02-08T03:02:24.743Z,1017.49
2018-02-08T03:03:24.708Z,1017.51
2018-02-08T03:04:24.670Z,1017.48
2018-02-08T03:05:24.883Z,1017.46
2018-02-08T03:06:24.594Z,1017.52
2018-02-08T03:07:24.554Z,1017.52
2018-02-08T03:08:24.520Z,1017.51
2018-02-08T03:09:24.479Z,1017.52
2018-02-08T03:10:24.452Z,1017.53
2018-02-08T03:11:24.414Z,1017.55
2018-02-08T03:12:24.369Z,1017.55
2018-02-08T03:13:24.339Z,1017.55
2018-02-08T03:14:24.301Z,1017.52
2018-02-08T03:15:24.263Z,1017.54
2018-02-08T03:16:24.237Z,1017.56
2018-02-08T03:17:24.188Z,1017.53
2018-02-08T03:18:24.149Z,1017.57
2018-02-08T03:19:24.118Z,1017.59
2018-02-08T03:20:24.082Z,1017.58
2018-02-08T03:21:24.043Z,1017.58
2018-02-08T03:22:24.007Z,1017.59
2018-02-08T03:23:23.969Z,1017.61
2018-02-08T03:24:23.936Z,1017.61
2018-02-08T03:25:23.902Z,1017.61
2018-02-08T03:26:23.855Z,1017.64
2018-02-08T03:27:23.816Z,1017.61
2018-02-08T03:28:24.087Z,1017.63
2018-02-08T03:29:23.739Z,1017.62
2018-02-08T03:30:23.721Z,1017.62
2018-02-08T03:31:23.676Z,1017.60
2018-02-08T03:32:23.633Z,1017.59
2018-02-08T03:33:23.597Z,1017.64
2018-02-08T03:34:23.810Z,1017.61
2018-02-08T03:35:23.517Z,1017.60
2018-02-08T03:36:23.491Z,1017.62
2018-02-08T03:37:23.449Z,1017.64
2018-02-08T03:38:23.412Z,1017.58
2018-02-08T03:39:23.373Z,1017.55
2018-02-08T03:40:23.586Z,1017.57
2018-02-08T03:41:23.311Z,1017.56
2018-02-08T03:42:23.267Z,1017.54
2018-02-08T03:43:23.233Z,1017.50
2018-02-08T03:44:23.187Z,1017.49
2018-02-08T03:45:23.150Z,1017.51
2018-02-08T03:46:23.127Z,1017.51
2018-02-08T03:47:23.087Z,1017.54
2018-02-08T03:48:23.044Z,1017.51
2018-02-08T03:49:23.006Z,1017.50
2018-02-08T03:50:22.970Z,1017.49
2018-02-08T03:51:22.943Z,1017.48
2018-02-08T03:52:23.145Z,1017.50
2018-02-08T03:53:22.860Z,1017.45
2018-02-08T03:54:22.822Z,1017.47
2018-02-08T03:55:22.781Z,1017.48
2018-02-08T03:56:22.753Z,1017.44
2018-02-08T03:57:22.713Z,1017.44
2018-02-08T03:58:22.674Z,1017.45
2018-02-08T03:59:22.638Z,1017.51
2018-02-08T04:00:22.602Z,1017.53
2018-02-08T04:01:22.557Z,1017.51
2018-02-08T04:02:22.528Z,1017.51
2018-02-08T04:03:22.489Z,1017.53
2018-02-08T04:04:22.749Z,1017.56
2018-02-08T04:05:22.414Z,1017.53
2018-02-08T04:06:22.371Z,1017.50
2018-02-08T04:07:22.341Z,1017.47
2018-02-08T04:08:22.303Z,1017.45
2018-02-08T04:09:22.515Z,1017.50
2018-02-08T04:10:22.224Z,1017.52
2018-02-08T04:11:22.191Z,1017.51
2018-02-08T04:12:22.166Z,1017.54
2018-02-08T04:13:22.119Z,1017.53
2018-02-08T04:14:22.080Z,1017.56
2018-02-08T04:15:22.840Z,1017.56
2018-02-08T04:16:22.008Z,1017.57
2018-02-08T04:17:21.964Z,1017.58
2018-02-08T04:18:21.932Z,1017.59
2018-02-08T04:19:21.894Z,1017.58
2018-02-08T04:20:21.852Z,1017.59
2018-02-08T04:21:22.073Z,1017.59
2018-02-08T04:22:21.777Z,1017.54
2018-02-08T04:23:21.740Z,1017.57
2018-02-08T04:24:21.707Z,1017.62
2018-02-08T04:25:21.680Z,1017.61
2018-02-08T04:26:21.632Z,1017.63
2018-02-08T04:27:21.844Z,1017.62
2018-02-08T04:28:21.558Z,1017.64
2018-02-08T04:29:21.526Z,1017.64
2018-02-08T04:30:21.486Z,1017.66
2018-02-08T04:31:21.454Z,1017.66
2018-02-08T04:32:21.416Z,1017.70
2018-02-08T04:33:21.372Z,1017.65
2018-02-08T04:34:21.337Z,1017.65
2018-02-08T04:35:21.313Z,1017.63
2018-02-08T04:36:21.258Z,1017.68
2018-02-08T04:37:21.219Z,1017.64
2018-02-08T04:38:21.430Z,1017.67
2018-02-08T04:39:21.506Z,1017.65
2018-02-08T04:40:21.116Z,1017.71
2018-02-08T04:41:21.082Z,1017.68
2018-02-08T04:42:21.048Z,1017.69
2018-02-08T04:43:21.000Z,1017.74
2018-02-08T04:44:20.969Z,1017.73
2018-02-08T04:45:20.933Z,1017.72
2018-02-08T04:46:20.890Z,1017.73
2018-02-08T04:47:20.866Z,1017.73
2018-02-08T04:48:20.814Z,1017.69
2018-02-08T04:49:20.780Z,1017.71
2018-02-08T04:50:20.997Z,1017.70
2018-02-08T04:51:20.707Z,1017.66
2018-02-08T04:52:20.672Z,1017.69
2018-02-08T04:53:20.630Z,1017.67
2018-02-08T04:54:20.593Z,1017.71
2018-02-08T04:55:20.554Z,1017.71
2018-02-08T04:56:20.525Z,1017.72
2018-02-08T04:57:20.491Z,1017.70
2018-02-08T04:58:20.464Z,1017.72
2018-02-08T04:59:20.410Z,1017.72
2018-02-08T05:00:20.381Z,1017.73
2018-02-08T05:01:20.339Z,1017.70
2018-02-08T05:02:20.605Z,1017.71
2018-02-08T05:03:20.266Z,1017.71
2018-02-08T05:04:20.227Z,1017.68
2018-02-08T05:05:20.189Z,1017.73
2018-02-08T05:06:20.156Z,1017.74
2018-02-08T05:07:20.114Z,1017.74
2018-02-08T05:08:20.078Z,1017.75
2018-02-08T05:09:20.034Z,1017.70
2018-02-08T05:10:20.006Z,1017.70
2018-02-08T05:11:19.965Z,1017.77
2018-02-08T05:12:19.938Z,1017.77
2018-02-08T05:13:20.193Z,1017.76
2018-02-08T05:14:19.858Z,1017.75
2018-02-08T05:15:19.824Z,1017.78
2018-02-08T05:16:19.779Z,1017.74
2018-02-08T05:17:19.748Z,1017.72
2018-02-08T05:18:19.704Z,1017.81
2018-02-08T05:19:19.666Z,1017.74
2018-02-08T05:20:19.634Z,1017.75
2018-02-08T05:21:19.598Z,1017.80
2018-02-08T05:22:19.558Z,1017.77
2018-02-08T05:23:19.522Z,1017.84
2018-02-08T05:24:19.492Z,1017.82
2018-02-08T05:25:19.698Z,1017.78
2018-02-08T05:26:19.428Z,1017.78
2018-02-08T05:27:19.379Z,1017.82
2018-02-08T05:28:19.338Z,1017.75
2018-02-08T05:29:19.297Z,1017.77
2018-02-08T05:30:19.272Z,1017.78
2018-02-08T05:31:19.226Z,1017.80
2018-02-08T05:32:19.194Z,1017.83
2018-02-08T05:33:19.150Z,1017.80
2018-02-08T05:34:19.114Z,1017.77
2018-02-08T05:35:19.082Z,1017.81
2018-02-08T05:36:19.045Z,1017.77
2018-02-08T05:37:19.010Z,1017.79
2018-02-08T05:38:18.967Z,1017.79
2018-02-08T05:39:18.923Z,1017.80
2018-02-08T05:40:18.895Z,1017.81
2018-02-08T05:41:18.861Z,1017.82
2018-02-08T05:42:18.824Z,1017.80
2018-02-08T05:43:18.784Z,1017.81
2018-02-08T05:44:18.742Z,1017.87
2018-02-08T05:45:18.706Z,1017.83
2018-02-08T05:46:18.674Z,1017.90
2018-02-08T05:47:18.636Z,1017.82
2018-02-08T05:48:18.593Z,1017.90
2018-02-08T05:49:18.861Z,1017.90
2018-02-08T05:50:18.517Z,1017.94
2018-02-08T05:51:18.477Z,1017.91
2018-02-08T05:52:18.456Z,1017.92
2018-02-08T05:53:18.408Z,1017.88
2018-02-08T05:54:18.373Z,1017.89
2018-02-08T05:55:18.581Z,1017.92
2018-02-08T05:56:18.297Z,1017.90
2018-02-08T05:57:18.265Z,1017.87
2018-02-08T05:58:18.220Z,1017.92
2018-02-08T05:59:18.185Z,1017.89
2018-02-08T06:00:18.447Z,1017.91
2018-02-08T06:01:18.112Z,1017.90
2018-02-08T06:02:18.080Z,1017.89
2018-02-08T06:03:18.046Z,1017.91
2018-02-08T06:04:18.002Z,1017.94
2018-02-08T06:05:17.960Z,1017.92
2018-02-08T06:06:17.928Z,1017.94
2018-02-08T06:07:17.886Z,1017.96
2018-02-08T06:08:17.853Z,1018.00
2018-02-08T06:09:17.812Z,1018.01
2018-02-08T06:10:17.772Z,1018.05
2018-02-08T06:11:17.730Z,1018.05
2018-02-08T06:12:17.704Z,1018.06
2018-02-08T06:13:17.661Z,1018.02
2018-02-08T06:14:17.628Z,1017.99
2018-02-08T06:15:17.590Z,1018.00
2018-02-08T06:16:17.549Z,1018.00
2018-02-08T06:17:17.810Z,1018.03
2018-02-08T06:18:17.477Z,1018.06
2018-02-08T06:19:17.439Z,1018.05
2018-02-08T06:20:17.403Z,1018.01
2018-02-08T06:21:17.367Z,1018.04
2018-02-08T06:22:17.330Z,1018.00
2018-02-08T06:23:17.297Z,1018.01
2018-02-08T06:24:17.270Z,1018.04
2018-02-08T06:25:17.219Z,1018.05
2018-02-08T06:26:17.180Z,1018.05
2018-02-08T06:27:17.140Z,1018.08
2018-02-08T06:28:17.101Z,1018.06
2018-02-08T06:29:17.071Z,1018.06
2018-02-08T06:30:17.031Z,1018.07
2018-02-08T06:31:16.995Z,1018.11
2018-02-08T06:32:16.959Z,1018.13
2018-02-08T06:33:16.921Z,1018.10
2018-02-08T06:34:16.891Z,1018.07
2018-02-08T06:35:17.148Z,1018.05
2018-02-08T06:36:16.802Z,1018.10
2018-02-08T06:37:16.767Z,1018.10
2018-02-08T06:38:16.724Z,1018.14
2018-02-08T06:39:16.692Z,1018.11
2018-02-08T06:40:16.664Z,1018.10
2018-02-08T06:41:16.618Z,1018.09
2018-02-08T06:42:16.580Z,1018.11
2018-02-08T06:43:16.543Z,1018.15
2018-02-08T06:44:16.507Z,1018.20
2018-02-08T06:45:16.471Z,1018.22
2018-02-08T06:46:16.442Z,1018.23
2018-02-08T06:47:16.410Z,1018.24
2018-02-08T06:48:16.363Z,1018.24
2018-02-08T06:49:16.316Z,1018.25
2018-02-08T06:50:16.280Z,1018.26
2018-02-08T06:51:16.248Z,1018.26
2018-02-08T06:52:16.204Z,1018.31
2018-02-08T06:53:16.171Z,1018.32
2018-02-08T06:54:16.137Z,1018.35
2018-02-08T06:55:16.095Z,1018.38
2018-02-08T06:56:16.066Z,1018.42
2018-02-08T06:57:16.026Z,1018.43
2018-02-08T06:58:16.015Z,1018.44
2018-02-08T06:59:15.939Z,1018.46
2018-02-08T07:00:15.907Z,1018.47
2018-02-08T07:01:15.877Z,1018.43
2018-02-08T07:02:15.841Z,1018.44
2018-02-08T07:03:15.800Z,1018.43
2018-02-08T07:04:15.758Z,1018.41
2018-02-08T07:05:15.718Z,1018.43
2018-02-08T07:06:15.686Z,1018.44
2018-02-08T07:07:15.655Z,1018.45
2018-02-08T07:08:15.610Z,1018.47
2018-02-08T07:09:15.576Z,1018.49
2018-02-08T07:10:15.532Z,1018.51
2018-02-08T07:11:15.493Z,1018.49
2018-02-08T07:12:15.470Z,1018.50
2018-02-08T07:13:15.430Z,1018.48
2018-02-08T07:14:15.385Z,1018.52
2018-02-08T07:15:15.349Z,1018.56
2018-02-08T07:16:15.322Z,1018.53
2018-02-08T07:17:15.278Z,1018.57
2018-02-08T07:18:15.247Z,1018.65
2018-02-08T07:19:15.248Z,1018.64
2018-02-08T07:20:15.175Z,1018.61
2018-02-08T07:21:15.127Z,1018.58
2018-02-08T07:22:15.092Z,1018.64
2018-02-08T07:23:15.066Z,1018.73
2018-02-08T07:24:15.023Z,1018.64
2018-02-08T07:25:14.997Z,1018.66
2018-02-08T07:26:14.951Z,1018.69
2018-02-08T07:27:14.917Z,1018.65
2018-02-08T07:28:14.877Z,1018.69
2018-02-08T07:29:14.836Z,1018.69
2018-02-08T07:30:14.811Z,1018.73
2018-02-08T07:31:14.766Z,1018.70
2018-02-08T07:32:14.725Z,1018.72
2018-02-08T07:33:14.693Z,1018.71
2018-02-08T07:34:14.663Z,1018.76
2018-02-08T07:35:14.620Z,1018.72
2018-02-08T07:36:14.589Z,1018.75
2018-02-08T07:37:14.553Z,1018.74
2018-02-08T07:38:14.521Z,1018.76
2018-02-08T07:39:14.780Z,1018.82
2018-02-08T07:40:14.451Z,1018.83
2018-02-08T07:41:14.416Z,1018.85
2018-02-08T07:42:14.377Z,1018.88
2018-02-08T07:43:14.341Z,1018.91
2018-02-08T07:44:14.302Z,1018.94
2018-02-08T07:45:14.271Z,1018.97
2018-02-08T07:46:14.240Z,1018.96
2018-02-08T07:47:14.229Z,1018.93
2018-02-08T07:48:14.210Z,1018.93
2018-02-08T07:49:14.131Z,1018.99
2018-02-08T07:50:14.100Z,1019.03
2018-02-08T07:51:14.081Z,1019.07
2018-02-08T07:52:14.040Z,1019.13
2018-02-08T07:53:14.000Z,1019.15
2018-02-08T07:54:13.961Z,1019.14
2018-02-08T07:55:13.931Z,1019.14
2018-02-08T07:56:13.901Z,1019.17
2018-02-08T07:57:13.870Z,1019.27
2018-02-08T07:58:13.836Z,1019.31
2018-02-08T07:59:13.801Z,1019.32
2018-02-08T08:00:13.760Z,1019.38
2018-02-08T08:01:13.733Z,1019.36
2018-02-08T08:02:13.716Z,1019.41
2018-02-08T08:03:13.668Z,1019.43
2018-02-08T08:04:13.631Z,1019.53
2018-02-08T08:05:13.596Z,1019.53
2018-02-08T08:06:13.568Z,1019.56
2018-02-08T08:07:13.538Z,1019.55
2018-02-08T08:08:13.507Z,1019.64
2018-02-08T08:09:13.769Z,1019.71
2018-02-08T08:10:13.435Z,1019.76
2018-02-08T08:11:13.403Z,1019.77
2018-02-08T08:12:13.376Z,1019.76
2018-02-08T08:13:13.343Z,1019.63
2018-02-08T08:14:13.309Z,1019.50
2018-02-08T08:15:13.277Z,1019.40
2018-02-08T08:16:13.286Z,1019.28
2018-02-08T08:17:13.208Z,1019.24
2018-02-08T08:18:13.182Z,1019.34
2018-02-08T08:19:13.149Z,1019.42
2018-02-08T08:20:13.122Z,1019.55
2018-02-08T08:21:13.084Z,1019.59
2018-02-08T08:22:13.051Z,1019.56
2018-02-08T08:23:13.020Z,1019.58
2018-02-08T08:24:13.022Z,1019.55
2018-02-08T08:25:12.963Z,1019.55
2018-02-08T08:26:12.931Z,1019.56
2018-02-08T08:27:12.919Z,1019.55
2018-02-08T08:28:12.867Z,1019.50
2018-02-08T08:29:12.837Z,1019.56
2018-02-08T08:30:12.815Z,1019.59
2018-02-08T08:31:12.774Z,1019.63
2018-02-08T08:32:12.740Z,1019.64
2018-02-08T08:33:12.708Z,1019.67
2018-02-08T08:34:12.686Z,1019.72
2018-02-08T08:35:12.654Z,1019.81
2018-02-08T08:36:12.631Z,1019.86
2018-02-08T08:37:12.590Z,1019.94
2018-02-08T08:38:12.906Z,1019.95
2018-02-08T08:39:12.527Z,1019.91
2018-02-08T08:40:12.513Z,1019.88
2018-02-08T08:41:12.491Z,1019.78
2018-02-08T08:42:12.437Z,1019.66
2018-02-08T08:43:12.412Z,1019.63
2018-02-08T08:44:12.387Z,1019.68
2018-02-08T08:45:12.361Z,1019.62
2018-02-08T08:46:12.325Z,1019.63
2018-02-08T08:47:12.296Z,1019.63
2018-02-08T08:48:12.269Z,1019.62
2018-02-08T08:49:12.236Z,1019.63
2018-02-08T08:50:12.210Z,1019.66
2018-02-08T08:51:12.186Z,1019.70
2018-02-08T08:52:12.141Z,1019.66
2018-02-08T08:53:12.115Z,1019.58
2018-02-08T08:54:12.089Z,1019.51
2018-02-08T08:55:12.058Z,1019.50
2018-02-08T08:56:12.034Z,1019.43
2018-02-08T08:57:12.041Z,1019.41
2018-02-08T08:58:11.971Z,1019.40
2018-02-08T08:59:11.942Z,1019.44
2018-02-08T09:00:11.915Z,1019.41
2018-02-08T09:01:11.886Z,1019.40
2018-02-08T09:02:11.854Z,1019.37
2018-02-08T09:03:11.835Z,1019.42
2018-02-08T09:04:11.795Z,1019.45
2018-02-08T09:05:11.779Z,1019.44
2018-02-08T09:06:11.741Z,1019.43
2018-02-08T09:07:11.709Z,1019.46
2018-02-08T09:08:11.676Z,1019.48
2018-02-08T09:09:11.652Z,1019.47
2018-02-08T09:10:11.620Z,1019.40
2018-02-08T09:11:11.588Z,1019.45
2018-02-08T09:12:11.557Z,1019.47
2018-02-08T09:13:11.533Z,1019.43
2018-02-08T09:14:11.508Z,1019.43
2018-02-08T09:15:11.472Z,1019.42
2018-02-08T09:16:11.448Z,1019.46
2018-02-08T09:17:11.439Z,1019.42
2018-02-08T09:18:11.385Z,1019.46
2018-02-08T09:19:11.350Z,1019.46
2018-02-08T09:20:11.341Z,1019.49
2018-02-08T09:21:11.337Z,1019.49
2018-02-08T09:22:11.305Z,1019.48
2018-02-08T09:23:11.273Z,1019.50
2018-02-08T09:24:11.270Z,1019.54
2018-02-08T09:25:11.220Z,1019.49
2018-02-08T09:26:11.158Z,1019.54
2018-02-08T09:27:11.144Z,1019.52
2018-02-08T09:28:11.088Z,1019.49
2018-02-08T09:29:11.060Z,1019.50
2018-02-08T09:30:11.026Z,1019.52
2018-02-08T09:31:11.004Z,1019.50
2018-02-08T09:32:10.979Z,1019.48
2018-02-08T09:33:10.951Z,1019.50
2018-02-08T09:34:10.921Z,1019.49
2018-02-08T09:35:10.893Z,1019.44
2018-02-08T09:36:10.865Z,1019.45
2018-02-08T09:37:10.835Z,1019.45
2018-02-08T09:38:10.820Z,1019.44
2018-02-08T09:39:10.783Z,1019.44
2018-02-08T09:40:10.754Z,1019.42
2018-02-08T09:41:10.720Z,1019.42
2018-02-08T09:42:10.705Z,1019.40
2018-02-08T09:43:10.667Z,1019.43
2018-02-08T09:44:10.648Z,1019.43
2018-02-08T09:45:10.612Z,1019.36
2018-02-08T09:46:10.588Z,1019.40
2018-02-08T09:47:10.554Z,1019.45
2018-02-08T09:48:10.538Z,1019.46
2018-02-08T09:49:10.505Z,1019.43
2018-02-08T09:50:10.480Z,1019.47
2018-02-08T09:51:10.452Z,1019.43
2018-02-08T09:52:10.416Z,1019.41
2018-02-08T09:53:10.398Z,1019.38
2018-02-08T09:54:10.374Z,1019.39
2018-02-08T09:55:10.347Z,1019.42
2018-02-08T09:56:10.324Z,1019.43
2018-02-08T09:57:10.285Z,1019.41
2018-02-08T09:58:10.259Z,1019.44
2018-02-08T09:59:10.230Z,1019.47
2018-02-08T10:00:10.205Z,1019.48
2018-02-08T10:01:10.177Z,1019.49
2018-02-08T10:02:10.150Z,1019.52
2018-02-08T10:03:10.122Z,1019.49
2018-02-08T10:04:10.098Z,1019.59
2018-02-08T10:05:10.073Z,1019.56
2018-02-08T10:06:10.051Z,1019.54
2018-02-08T10:07:10.022Z,1019.57
2018-02-08T10:08:09.992Z,1019.58
2018-02-08T10:09:09.962Z,1019.59
2018-02-08T10:10:09.941Z,1019.60
2018-02-08T10:11:09.907Z,1019.62
2018-02-08T10:12:09.879Z,1019.63
2018-02-08T10:13:09.855Z,1019.66
2018-02-08T10:14:09.831Z,1019.65
2018-02-08T10:15:09.802Z,1019.68
2018-02-08T10:16:09.774Z,1019.61
2018-02-08T10:17:09.752Z,1019.62
2018-02-08T10:18:09.722Z,1019.61
2018-02-08T10:19:09.693Z,1019.66
2018-02-08T10:20:09.669Z,1019.65
2018-02-08T10:21:09.644Z,1019.65
2018-02-08T10:22:09.626Z,1019.67
2018-02-08T10:23:09.887Z,1019.68
2018-02-08T10:24:09.560Z,1019.65
2018-02-08T10:25:09.557Z,1019.70
2018-02-08T10:26:09.515Z,1019.65
2018-02-08T10:27:09.488Z,1019.70
2018-02-08T10:28:09.452Z,1019.67
2018-02-08T10:29:09.426Z,1019.68
2018-02-08T10:30:09.415Z,1019.63
2018-02-08T10:31:09.371Z,1019.60
2018-02-08T10:32:09.354Z,1019.60
2018-02-08T10:33:09.325Z,1019.59
2018-02-08T10:34:09.298Z,1019.60
2018-02-08T10:35:09.308Z,1019.60
2018-02-08T10:36:09.250Z,1019.65
2018-02-08T10:37:09.219Z,1019.63
2018-02-08T10:38:09.194Z,1019.63
2018-02-08T10:39:09.168Z,1019.59
2018-02-08T10:40:09.129Z,1019.66
2018-02-08T10:41:09.115Z,1019.66
2018-02-08T10:42:09.085Z,1019.65
2018-02-08T10:43:09.059Z,1019.65
2018-02-08T10:44:09.025Z,1019.64
2018-02-08T10:45:09.014Z,1019.65
2018-02-08T10:46:08.977Z,1019.61
2018-02-08T10:47:08.946Z,1019.65
2018-02-08T10:48:08.924Z,1019.67
2018-02-08T10:49:08.903Z,1019.65
2018-02-08T10:50:08.912Z,1019.72
2018-02-08T10:51:08.840Z,1019.73
2018-02-08T10:52:09.126Z,1019.69
2018-02-08T10:53:08.791Z,1019.79
2018-02-08T10:54:08.766Z,1019.77
2018-02-08T10:55:08.739Z,1019.84
2018-02-08T10:56:08.707Z,1019.83
2018-02-08T10:57:08.684Z,1019.85
2018-02-08T10:58:08.659Z,1019.91
2018-02-08T10:59:08.631Z,1019.92
2018-02-08T11:00:08.604Z,1019.81
2018-02-08T11:01:08.580Z,1019.74
2018-02-08T11:02:08.552Z,1019.78
2018-02-08T11:03:08.531Z,1019.58
2018-02-08T11:04:08.508Z,1019.69
2018-02-08T11:05:08.474Z,1020.01
2018-02-08T11:06:08.447Z,1020.10
2018-02-08T11:07:08.422Z,1019.95
2018-02-08T11:08:08.403Z,1020.05
2018-02-08T11:09:08.370Z,1020.07
2018-02-08T11:10:08.344Z,1020.07
2018-02-08T11:11:08.314Z,1019.95
2018-02-08T11:12:08.285Z,1019.92
2018-02-08T11:13:08.266Z,1019.76
2018-02-08T11:14:08.237Z,1019.79
2018-02-08T11:15:08.211Z,1020.06
2018-02-08T11:16:08.182Z,1020.11
2018-02-08T11:17:08.154Z,1020.26
2018-02-08T11:18:08.129Z,1020.29
2018-02-08T11:19:08.099Z,1020.36
2018-02-08T11:20:08.077Z,1020.42
2018-02-08T11:21:08.063Z,1020.44
2018-02-08T11:22:08.018Z,1020.46
2018-02-08T11:23:08.001Z,1020.49
2018-02-08T11:24:07.972Z,1020.44
2018-02-08T11:25:07.945Z,1020.38
2018-02-08T11:26:07.920Z,1020.27
2018-02-08T11:27:07.894Z,1020.38
2018-02-08T11:28:07.866Z,1020.28
2018-02-08T11:29:07.836Z,1020.22
2018-02-08T11:30:07.815Z,1020.17
2018-02-08T11:31:07.786Z,1020.24
2018-02-08T11:32:07.757Z,1020.15
2018-02-08T11:33:07.740Z,1020.15
2018-02-08T11:34:07.710Z,1020.08
2018-02-08T11:35:07.685Z,1019.92
2018-02-08T11:36:07.661Z,1020.00
2018-02-08T11:37:07.634Z,1019.96
2018-02-08T11:38:07.606Z,1019.96
2018-02-08T11:39:07.619Z,1020.07
2018-02-08T11:40:07.553Z,1020.04
2018-02-08T11:41:07.527Z,1020.06
2018-02-08T11:42:07.498Z,1020.11
2018-02-08T11:43:07.479Z,1020.11
2018-02-08T11:44:07.461Z,1020.12
2018-02-08T11:45:07.445Z,1020.10
2018-02-08T11:46:07.398Z,1020.09
2018-02-08T11:47:07.374Z,1020.18
2018-02-08T11:48:07.349Z,1020.21
2018-02-08T11:49:07.342Z,1020.23
2018-02-08T11:50:07.294Z,1020.01
2018-02-08T11:51:07.276Z,1020.16
2018-02-08T11:52:07.243Z,1020.18
2018-02-08T11:53:07.217Z,1020.22
2018-02-08T11:54:07.204Z,1020.20
2018-02-08T11:55:07.163Z,1020.14
2018-02-08T11:56:07.139Z,1020.18
2018-02-08T11:57:07.114Z,1020.21
2018-02-08T11:58:07.114Z,1020.17
2018-02-08T11:59:07.065Z,1020.16
2018-02-08T12:00:07.048Z,1020.12
2018-02-08T12:01:07.017Z,1020.07
2018-02-08T12:02:06.986Z,1020.09
2018-02-08T12:03:06.989Z,1020.10
2018-02-08T12:04:06.935Z,1020.06
2018-02-08T12:05:06.961Z,1020.03